sensor_id;sensor_type;location;lat;lon;timestamp;P1;durP1;ratioP1;P2;durP2;ratioP2
9138;SDS011;4604;48.616;9.548;2023-12-20T00:01:11;1.80;;;1.20;;
9138;SDS011;4604;48.616;9.548;2023-12-20T00:03:38;1.13;;;1.10;;
9138;SDS011;4604;48.616;9.548;2023-12-20T00:06:05;0.80;;;0.80;;
9138;SDS011;4604;48.616;9.548;2023-12-20T00:08:31;0.80;;;0.73;;
9138;SDS011;4604;48.616;9.548;2023-12-20T00:10:58;0.90;;;0.90;;
9138;SDS011;4604;48.616;9.548;2023-12-20T00:13:26;1.17;;;1.10;;
9138;SDS011;4604;48.616;9.548;2023-12-20T00:15:53;1.03;;;0.97;;
9138;SDS011;4604;48.616;9.548;2023-12-20T00:18:19;1.27;;;1.17;;
9138;SDS011;4604;48.616;9.548;2023-12-20T00:20:46;2.37;;;1.30;;
9138;SDS011;4604;48.616;9.548;2023-12-20T00:23:13;1.10;;;0.90;;
9138;SDS011;4604;48.616;9.548;2023-12-20T00:25:39;0.90;;;0.90;;
9138;SDS011;4604;48.616;9.548;2023-12-20T00:28:06;1.37;;;1.00;;
9138;SDS011;4604;48.616;9.548;2023-12-20T00:30:34;1.30;;;1.13;;
9138;SDS011;4604;48.616;9.548;2023-12-20T00:33:01;0.80;;;0.80;;
9138;SDS011;4604;48.616;9.548;2023-12-20T00:35:28;0.70;;;0.70;;
9138;SDS011;4604;48.616;9.548;2023-12-20T00:37:54;1.50;;;0.57;;
9138;SDS011;4604;48.616;9.548;2023-12-20T00:40:21;1.00;;;0.83;;
9138;SDS011;4604;48.616;9.548;2023-12-20T00:42:48;1.27;;;1.00;;
9138;SDS011;4604;48.616;9.548;2023-12-20T00:45:15;1.13;;;0.97;;
9138;SDS011;4604;48.616;9.548;2023-12-20T00:47:42;0.80;;;0.70;;
9138;SDS011;4604;48.616;9.548;2023-12-20T00:50:09;0.80;;;0.70;;
9138;SDS011;4604;48.616;9.548;2023-12-20T00:52:35;0.50;;;0.50;;
9138;SDS011;4604;48.616;9.548;2023-12-20T00:55:02;0.87;;;0.80;;
9138;SDS011;4604;48.616;9.548;2023-12-20T00:57:30;0.93;;;0.60;;
9138;SDS011;4604;48.616;9.548;2023-12-20T00:59:56;0.70;;;0.70;;
9138;SDS011;4604;48.616;9.548;2023-12-20T01:02:23;1.03;;;0.90;;
9138;SDS011;4604;48.616;9.548;2023-12-20T01:04:51;0.87;;;0.87;;
9138;SDS011;4604;48.616;9.548;2023-12-20T01:07:18;0.50;;;0.50;;
9138;SDS011;4604;48.616;9.548;2023-12-20T01:09:44;0.60;;;0.60;;
9138;SDS011;4604;48.616;9.548;2023-12-20T01:12:11;0.90;;;0.90;;
9138;SDS011;4604;48.616;9.548;2023-12-20T01:14:38;1.53;;;1.10;;
9138;SDS011;4604;48.616;9.548;2023-12-20T01:17:05;0.80;;;0.70;;
9138;SDS011;4604;48.616;9.548;2023-12-20T01:19:32;0.60;;;0.60;;
9138;SDS011;4604;48.616;9.548;2023-12-20T01:22:00;0.57;;;0.50;;
9138;SDS011;4604;48.616;9.548;2023-12-20T01:24:26;0.43;;;0.43;;
9138;SDS011;4604;48.616;9.548;2023-12-20T01:26:53;4.23;;;0.60;;
9138;SDS011;4604;48.616;9.548;2023-12-20T01:29:19;1.03;;;0.70;;
9138;SDS011;4604;48.616;9.548;2023-12-20T01:31:46;0.70;;;0.70;;
9138;SDS011;4604;48.616;9.548;2023-12-20T01:34:12;0.60;;;0.60;;
9138;SDS011;4604;48.616;9.548;2023-12-20T01:36:39;0.50;;;0.50;;
9138;SDS011;4604;48.616;9.548;2023-12-20T01:39:07;0.50;;;0.50;;
9138;SDS011;4604;48.616;9.548;2023-12-20T01:41:33;0.60;;;0.60;;
9138;SDS011;4604;48.616;9.548;2023-12-20T01:44:00;0.83;;;0.37;;
9138;SDS011;4604;48.616;9.548;2023-12-20T01:46:27;0.67;;;0.67;;
9138;SDS011;4604;48.616;9.548;2023-12-20T01:48:53;0.70;;;0.70;;
9138;SDS011;4604;48.616;9.548;2023-12-20T01:51:20;1.10;;;1.00;;
9138;SDS011;4604;48.616;9.548;2023-12-20T01:53:47;0.63;;;0.63;;
9138;SDS011;4604;48.616;9.548;2023-12-20T01:56:16;0.63;;;0.63;;
9138;SDS011;4604;48.616;9.548;2023-12-20T01:58:44;0.70;;;0.70;;
9138;SDS011;4604;48.616;9.548;2023-12-20T02:01:12;0.53;;;0.53;;
9138;SDS011;4604;48.616;9.548;2023-12-20T02:03:40;0.93;;;0.90;;
9138;SDS011;4604;48.616;9.548;2023-12-20T02:06:08;0.90;;;0.77;;
9138;SDS011;4604;48.616;9.548;2023-12-20T02:08:35;1.17;;;0.80;;
9138;SDS011;4604;48.616;9.548;2023-12-20T02:11:02;0.60;;;0.60;;
9138;SDS011;4604;48.616;9.548;2023-12-20T02:13:30;0.60;;;0.60;;
9138;SDS011;4604;48.616;9.548;2023-12-20T02:15:57;0.33;;;0.33;;
9138;SDS011;4604;48.616;9.548;2023-12-20T02:18:24;0.70;;;0.50;;
9138;SDS011;4604;48.616;9.548;2023-12-20T02:20:50;0.50;;;0.50;;
9138;SDS011;4604;48.616;9.548;2023-12-20T02:23:18;1.33;;;0.40;;
9138;SDS011;4604;48.616;9.548;2023-12-20T02:25:45;0.60;;;0.60;;
9138;SDS011;4604;48.616;9.548;2023-12-20T02:28:12;0.40;;;0.40;;
9138;SDS011;4604;48.616;9.548;2023-12-20T02:30:38;0.60;;;0.60;;
9138;SDS011;4604;48.616;9.548;2023-12-20T02:33:05;1.57;;;0.50;;
9138;SDS011;4604;48.616;9.548;2023-12-20T02:35:36;2.83;;;0.70;;
9138;SDS011;4604;48.616;9.548;2023-12-20T02:38:03;2.43;;;0.70;;
9138;SDS011;4604;48.616;9.548;2023-12-20T02:40:31;0.97;;;0.77;;
9138;SDS011;4604;48.616;9.548;2023-12-20T02:42:58;2.80;;;0.37;;
9138;SDS011;4604;48.616;9.548;2023-12-20T02:45:25;0.40;;;0.40;;
9138;SDS011;4604;48.616;9.548;2023-12-20T02:47:52;0.70;;;0.60;;
9138;SDS011;4604;48.616;9.548;2023-12-20T02:50:19;0.50;;;0.50;;
9138;SDS011;4604;48.616;9.548;2023-12-20T02:52:45;0.70;;;0.70;;
9138;SDS011;4604;48.616;9.548;2023-12-20T02:55:12;0.50;;;0.50;;
9138;SDS011;4604;48.616;9.548;2023-12-20T02:57:40;0.73;;;0.73;;
9138;SDS011;4604;48.616;9.548;2023-12-20T03:00:07;1.27;;;1.00;;
9138;SDS011;4604;48.616;9.548;2023-12-20T03:02:35;1.67;;;1.00;;
9138;SDS011;4604;48.616;9.548;2023-12-20T03:05:02;0.70;;;0.63;;
9138;SDS011;4604;48.616;9.548;2023-12-20T03:07:29;0.97;;;0.50;;
9138;SDS011;4604;48.616;9.548;2023-12-20T03:09:55;0.60;;;0.60;;
9138;SDS011;4604;48.616;9.548;2023-12-20T03:12:22;0.57;;;0.50;;
9138;SDS011;4604;48.616;9.548;2023-12-20T03:14:50;0.50;;;0.50;;
9138;SDS011;4604;48.616;9.548;2023-12-20T03:17:17;0.73;;;0.60;;
9138;SDS011;4604;48.616;9.548;2023-12-20T03:19:43;0.70;;;0.70;;
9138;SDS011;4604;48.616;9.548;2023-12-20T03:22:10;0.37;;;0.37;;
9138;SDS011;4604;48.616;9.548;2023-12-20T03:24:37;0.30;;;0.30;;
9138;SDS011;4604;48.616;9.548;2023-12-20T03:27:03;0.60;;;0.60;;
9138;SDS011;4604;48.616;9.548;2023-12-20T03:29:30;0.60;;;0.60;;
9138;SDS011;4604;48.616;9.548;2023-12-20T03:31:58;0.60;;;0.57;;
9138;SDS011;4604;48.616;9.548;2023-12-20T03:34:25;0.60;;;0.60;;
9138;SDS011;4604;48.616;9.548;2023-12-20T03:36:52;0.73;;;0.73;;
9138;SDS011;4604;48.616;9.548;2023-12-20T03:39:18;0.70;;;0.70;;
9138;SDS011;4604;48.616;9.548;2023-12-20T03:41:45;0.63;;;0.63;;
9138;SDS011;4604;48.616;9.548;2023-12-20T03:44:12;0.83;;;0.83;;
9138;SDS011;4604;48.616;9.548;2023-12-20T03:46:38;0.60;;;0.60;;
9138;SDS011;4604;48.616;9.548;2023-12-20T03:49:06;0.87;;;0.80;;
9138;SDS011;4604;48.616;9.548;2023-12-20T03:51:33;0.63;;;0.63;;
9138;SDS011;4604;48.616;9.548;2023-12-20T03:53:59;0.63;;;0.63;;
9138;SDS011;4604;48.616;9.548;2023-12-20T03:56:26;2.27;;;0.70;;
9138;SDS011;4604;48.616;9.548;2023-12-20T03:58:52;1.27;;;0.80;;
9138;SDS011;4604;48.616;9.548;2023-12-20T04:01:19;1.50;;;0.87;;
9138;SDS011;4604;48.616;9.548;2023-12-20T04:03:45;0.70;;;0.70;;
9138;SDS011;4604;48.616;9.548;2023-12-20T04:06:17;1.00;;;0.90;;
9138;SDS011;4604;48.616;9.548;2023-12-20T04:08:44;0.70;;;0.70;;
9138;SDS011;4604;48.616;9.548;2023-12-20T04:11:10;0.60;;;0.60;;
9138;SDS011;4604;48.616;9.548;2023-12-20T04:13:37;0.83;;;0.83;;
9138;SDS011;4604;48.616;9.548;2023-12-20T04:16:03;0.80;;;0.80;;
9138;SDS011;4604;48.616;9.548;2023-12-20T04:18:30;0.67;;;0.67;;
9138;SDS011;4604;48.616;9.548;2023-12-20T04:20:57;0.87;;;0.70;;
9138;SDS011;4604;48.616;9.548;2023-12-20T04:23:25;0.80;;;0.70;;
9138;SDS011;4604;48.616;9.548;2023-12-20T04:25:51;0.60;;;0.60;;
9138;SDS011;4604;48.616;9.548;2023-12-20T04:28:18;0.90;;;0.80;;
9138;SDS011;4604;48.616;9.548;2023-12-20T04:30:44;2.83;;;0.73;;
9138;SDS011;4604;48.616;9.548;2023-12-20T04:33:11;1.17;;;1.00;;
9138;SDS011;4604;48.616;9.548;2023-12-20T04:35:37;0.60;;;0.60;;
9138;SDS011;4604;48.616;9.548;2023-12-20T04:38:05;0.97;;;0.83;;
9138;SDS011;4604;48.616;9.548;2023-12-20T04:40:33;1.43;;;0.93;;
9138;SDS011;4604;48.616;9.548;2023-12-20T04:43:00;0.50;;;0.50;;
9138;SDS011;4604;48.616;9.548;2023-12-20T04:45:27;0.60;;;0.60;;
9138;SDS011;4604;48.616;9.548;2023-12-20T04:47:53;0.40;;;0.40;;
9138;SDS011;4604;48.616;9.548;2023-12-20T04:50:21;1.00;;;0.50;;
9138;SDS011;4604;48.616;9.548;2023-12-20T04:52:47;2.40;;;0.67;;
9138;SDS011;4604;48.616;9.548;2023-12-20T04:55:14;0.60;;;0.60;;
9138;SDS011;4604;48.616;9.548;2023-12-20T04:57:42;0.40;;;0.40;;
9138;SDS011;4604;48.616;9.548;2023-12-20T05:00:09;1.37;;;1.27;;
9138;SDS011;4604;48.616;9.548;2023-12-20T05:02:37;0.30;;;0.30;;
9138;SDS011;4604;48.616;9.548;2023-12-20T05:05:04;0.30;;;0.30;;
9138;SDS011;4604;48.616;9.548;2023-12-20T05:07:31;0.83;;;0.50;;
9138;SDS011;4604;48.616;9.548;2023-12-20T05:09:58;0.40;;;0.40;;
9138;SDS011;4604;48.616;9.548;2023-12-20T05:12:24;0.37;;;0.37;;
9138;SDS011;4604;48.616;9.548;2023-12-20T05:14:52;0.87;;;0.80;;
9138;SDS011;4604;48.616;9.548;2023-12-20T05:17:19;0.50;;;0.50;;
9138;SDS011;4604;48.616;9.548;2023-12-20T05:19:46;0.60;;;0.60;;
9138;SDS011;4604;48.616;9.548;2023-12-20T05:22:12;0.70;;;0.60;;
9138;SDS011;4604;48.616;9.548;2023-12-20T05:24:39;0.60;;;0.60;;
9138;SDS011;4604;48.616;9.548;2023-12-20T05:27:06;0.43;;;0.43;;
9138;SDS011;4604;48.616;9.548;2023-12-20T05:29:32;0.30;;;0.30;;
9138;SDS011;4604;48.616;9.548;2023-12-20T05:32:00;0.43;;;0.43;;
9138;SDS011;4604;48.616;9.548;2023-12-20T05:34:28;0.50;;;0.50;;
9138;SDS011;4604;48.616;9.548;2023-12-20T05:36:55;0.63;;;0.60;;
9138;SDS011;4604;48.616;9.548;2023-12-20T05:39:21;0.57;;;0.57;;
9138;SDS011;4604;48.616;9.548;2023-12-20T05:41:48;0.50;;;0.50;;
9138;SDS011;4604;48.616;9.548;2023-12-20T05:44:15;1.07;;;0.50;;
9138;SDS011;4604;48.616;9.548;2023-12-20T05:46:41;0.30;;;0.30;;
9138;SDS011;4604;48.616;9.548;2023-12-20T05:49:10;0.80;;;0.80;;
9138;SDS011;4604;48.616;9.548;2023-12-20T05:51:36;0.77;;;0.73;;
9138;SDS011;4604;48.616;9.548;2023-12-20T05:54:03;0.60;;;0.57;;
9138;SDS011;4604;48.616;9.548;2023-12-20T05:56:30;0.43;;;0.40;;
9138;SDS011;4604;48.616;9.548;2023-12-20T05:58:56;0.40;;;0.40;;
9138;SDS011;4604;48.616;9.548;2023-12-20T06:01:23;0.23;;;0.23;;
9138;SDS011;4604;48.616;9.548;2023-12-20T06:03:50;0.70;;;0.70;;
9138;SDS011;4604;48.616;9.548;2023-12-20T06:06:18;0.43;;;0.43;;
9138;SDS011;4604;48.616;9.548;2023-12-20T06:08:45;1.03;;;0.93;;
9138;SDS011;4604;48.616;9.548;2023-12-20T06:11:11;1.47;;;1.37;;
9138;SDS011;4604;48.616;9.548;2023-12-20T06:13:38;0.53;;;0.53;;
9138;SDS011;4604;48.616;9.548;2023-12-20T06:16:05;0.63;;;0.63;;
9138;SDS011;4604;48.616;9.548;2023-12-20T06:18:32;0.50;;;0.47;;
9138;SDS011;4604;48.616;9.548;2023-12-20T06:20:59;0.83;;;0.70;;
9138;SDS011;4604;48.616;9.548;2023-12-20T06:23:27;0.47;;;0.47;;
9138;SDS011;4604;48.616;9.548;2023-12-20T06:25:53;0.50;;;0.50;;
9138;SDS011;4604;48.616;9.548;2023-12-20T06:28:20;0.93;;;0.50;;
9138;SDS011;4604;48.616;9.548;2023-12-20T06:30:46;0.57;;;0.47;;
9138;SDS011;4604;48.616;9.548;2023-12-20T06:33:14;0.63;;;0.60;;
9138;SDS011;4604;48.616;9.548;2023-12-20T06:35:41;0.80;;;0.60;;
9138;SDS011;4604;48.616;9.548;2023-12-20T06:38:07;1.23;;;0.77;;
9138;SDS011;4604;48.616;9.548;2023-12-20T06:40:35;0.60;;;0.60;;
9138;SDS011;4604;48.616;9.548;2023-12-20T06:43:02;0.80;;;0.60;;
9138;SDS011;4604;48.616;9.548;2023-12-20T06:45:29;2.40;;;0.60;;
9138;SDS011;4604;48.616;9.548;2023-12-20T06:47:55;1.23;;;0.70;;
9138;SDS011;4604;48.616;9.548;2023-12-20T06:50:22;1.53;;;0.83;;
9138;SDS011;4604;48.616;9.548;2023-12-20T06:52:49;1.03;;;1.00;;
9138;SDS011;4604;48.616;9.548;2023-12-20T06:55:15;0.60;;;0.60;;
9138;SDS011;4604;48.616;9.548;2023-12-20T06:57:43;0.90;;;0.90;;
9138;SDS011;4604;48.616;9.548;2023-12-20T07:00:11;0.50;;;0.50;;
9138;SDS011;4604;48.616;9.548;2023-12-20T07:02:38;1.27;;;1.17;;
9138;SDS011;4604;48.616;9.548;2023-12-20T07:05:05;1.73;;;0.90;;
9138;SDS011;4604;48.616;9.548;2023-12-20T07:07:31;0.80;;;0.80;;
9138;SDS011;4604;48.616;9.548;2023-12-20T07:09:58;2.30;;;0.70;;
9138;SDS011;4604;48.616;9.548;2023-12-20T07:12:25;0.73;;;0.73;;
9138;SDS011;4604;48.616;9.548;2023-12-20T07:14:53;1.40;;;1.00;;
9138;SDS011;4604;48.616;9.548;2023-12-20T07:17:19;1.50;;;0.90;;
9138;SDS011;4604;48.616;9.548;2023-12-20T07:19:47;5.57;;;1.00;;
9138;SDS011;4604;48.616;9.548;2023-12-20T07:22:13;0.80;;;0.80;;
9138;SDS011;4604;48.616;9.548;2023-12-20T07:24:40;1.20;;;0.90;;
9138;SDS011;4604;48.616;9.548;2023-12-20T07:27:07;2.00;;;1.00;;
9138;SDS011;4604;48.616;9.548;2023-12-20T07:29:33;2.00;;;1.30;;
9138;SDS011;4604;48.616;9.548;2023-12-20T07:32:01;3.87;;;1.13;;
9138;SDS011;4604;48.616;9.548;2023-12-20T07:34:28;0.97;;;0.70;;
9138;SDS011;4604;48.616;9.548;2023-12-20T07:36:54;0.73;;;0.73;;
9138;SDS011;4604;48.616;9.548;2023-12-20T07:39:21;0.77;;;0.57;;
9138;SDS011;4604;48.616;9.548;2023-12-20T07:41:47;1.00;;;0.90;;
9138;SDS011;4604;48.616;9.548;2023-12-20T07:44:14;0.90;;;0.90;;
9138;SDS011;4604;48.616;9.548;2023-12-20T07:46:41;1.43;;;1.10;;
9138;SDS011;4604;48.616;9.548;2023-12-20T07:49:09;0.80;;;0.80;;
9138;SDS011;4604;48.616;9.548;2023-12-20T07:51:36;0.80;;;0.80;;
9138;SDS011;4604;48.616;9.548;2023-12-20T07:54:02;0.77;;;0.70;;
9138;SDS011;4604;48.616;9.548;2023-12-20T07:56:29;0.93;;;0.70;;
9138;SDS011;4604;48.616;9.548;2023-12-20T07:58:56;2.77;;;0.80;;
9138;SDS011;4604;48.616;9.548;2023-12-20T08:01:23;0.63;;;0.63;;
9138;SDS011;4604;48.616;9.548;2023-12-20T08:03:49;0.70;;;0.70;;
9138;SDS011;4604;48.616;9.548;2023-12-20T08:06:17;0.60;;;0.60;;
9138;SDS011;4604;48.616;9.548;2023-12-20T08:08:49;0.70;;;0.70;;
9138;SDS011;4604;48.616;9.548;2023-12-20T08:11:18;0.90;;;0.90;;
9138;SDS011;4604;48.616;9.548;2023-12-20T08:13:50;1.60;;;1.37;;
9138;SDS011;4604;48.616;9.548;2023-12-20T08:16:17;2.37;;;1.97;;
9138;SDS011;4604;48.616;9.548;2023-12-20T08:18:44;2.67;;;2.20;;
9138;SDS011;4604;48.616;9.548;2023-12-20T08:21:11;6.53;;;2.87;;
9138;SDS011;4604;48.616;9.548;2023-12-20T08:23:38;5.57;;;3.27;;
9138;SDS011;4604;48.616;9.548;2023-12-20T08:26:05;5.63;;;3.20;;
9138;SDS011;4604;48.616;9.548;2023-12-20T08:28:32;4.03;;;2.67;;
9138;SDS011;4604;48.616;9.548;2023-12-20T08:30:59;2.20;;;1.63;;
9138;SDS011;4604;48.616;9.548;2023-12-20T08:33:26;6.37;;;3.83;;
9138;SDS011;4604;48.616;9.548;2023-12-20T08:35:52;3.03;;;2.20;;
9138;SDS011;4604;48.616;9.548;2023-12-20T08:38:19;3.20;;;1.50;;
9138;SDS011;4604;48.616;9.548;2023-12-20T08:40:47;3.80;;;2.57;;
9138;SDS011;4604;48.616;9.548;2023-12-20T08:43:14;2.20;;;2.00;;
9138;SDS011;4604;48.616;9.548;2023-12-20T08:45:41;2.07;;;1.80;;
9138;SDS011;4604;48.616;9.548;2023-12-20T08:48:10;1.90;;;1.60;;
9138;SDS011;4604;48.616;9.548;2023-12-20T08:50:37;1.90;;;1.70;;
9138;SDS011;4604;48.616;9.548;2023-12-20T08:53:04;3.03;;;2.10;;
9138;SDS011;4604;48.616;9.548;2023-12-20T08:55:30;3.60;;;2.73;;
9138;SDS011;4604;48.616;9.548;2023-12-20T08:57:58;5.17;;;3.20;;
9138;SDS011;4604;48.616;9.548;2023-12-20T09:00:25;11.37;;;4.60;;
9138;SDS011;4604;48.616;9.548;2023-12-20T09:02:52;10.40;;;5.00;;
9138;SDS011;4604;48.616;9.548;2023-12-20T09:05:19;10.43;;;3.40;;
9138;SDS011;4604;48.616;9.548;2023-12-20T09:07:46;8.60;;;3.20;;
9138;SDS011;4604;48.616;9.548;2023-12-20T09:10:12;4.03;;;3.00;;
9138;SDS011;4604;48.616;9.548;2023-12-20T09:12:39;2.70;;;2.43;;
9138;SDS011;4604;48.616;9.548;2023-12-20T09:15:09;3.93;;;2.70;;
9138;SDS011;4604;48.616;9.548;2023-12-20T09:17:35;3.47;;;2.90;;
9138;SDS011;4604;48.616;9.548;2023-12-20T09:20:02;4.63;;;3.57;;
9138;SDS011;4604;48.616;9.548;2023-12-20T09:22:31;4.47;;;3.30;;
9138;SDS011;4604;48.616;9.548;2023-12-20T09:24:58;6.60;;;3.40;;
9138;SDS011;4604;48.616;9.548;2023-12-20T09:27:25;5.07;;;3.53;;
9138;SDS011;4604;48.616;9.548;2023-12-20T09:29:51;8.00;;;3.80;;
9138;SDS011;4604;48.616;9.548;2023-12-20T09:32:21;6.67;;;4.57;;
9138;SDS011;4604;48.616;9.548;2023-12-20T09:34:48;8.87;;;5.37;;
9138;SDS011;4604;48.616;9.548;2023-12-20T09:37:14;7.83;;;3.73;;
9138;SDS011;4604;48.616;9.548;2023-12-20T09:39:41;6.23;;;4.07;;
9138;SDS011;4604;48.616;9.548;2023-12-20T09:42:07;6.63;;;4.40;;
9138;SDS011;4604;48.616;9.548;2023-12-20T09:44:37;7.03;;;4.40;;
9138;SDS011;4604;48.616;9.548;2023-12-20T09:47:07;9.80;;;5.27;;
9138;SDS011;4604;48.616;9.548;2023-12-20T09:49:35;6.47;;;4.63;;
9138;SDS011;4604;48.616;9.548;2023-12-20T09:52:04;6.60;;;4.43;;
9138;SDS011;4604;48.616;9.548;2023-12-20T09:54:33;7.93;;;5.67;;
9138;SDS011;4604;48.616;9.548;2023-12-20T09:57:00;10.03;;;6.17;;
9138;SDS011;4604;48.616;9.548;2023-12-20T09:59:27;8.13;;;5.40;;
9138;SDS011;4604;48.616;9.548;2023-12-20T10:01:53;10.10;;;5.50;;
9138;SDS011;4604;48.616;9.548;2023-12-20T10:04:22;6.27;;;3.47;;
9138;SDS011;4604;48.616;9.548;2023-12-20T10:06:50;7.90;;;4.53;;
9138;SDS011;4604;48.616;9.548;2023-12-20T10:09:17;9.07;;;3.70;;
9138;SDS011;4604;48.616;9.548;2023-12-20T10:11:43;4.67;;;3.00;;
9138;SDS011;4604;48.616;9.548;2023-12-20T10:14:11;3.70;;;2.67;;
9138;SDS011;4604;48.616;9.548;2023-12-20T10:16:38;3.77;;;2.43;;
9138;SDS011;4604;48.616;9.548;2023-12-20T10:19:06;2.90;;;2.00;;
9138;SDS011;4604;48.616;9.548;2023-12-20T10:21:33;3.57;;;2.40;;
9138;SDS011;4604;48.616;9.548;2023-12-20T10:24:01;5.07;;;2.50;;
9138;SDS011;4604;48.616;9.548;2023-12-20T10:26:28;5.27;;;2.17;;
9138;SDS011;4604;48.616;9.548;2023-12-20T10:28:55;3.57;;;2.57;;
9138;SDS011;4604;48.616;9.548;2023-12-20T10:31:26;4.73;;;2.60;;
9138;SDS011;4604;48.616;9.548;2023-12-20T10:33:53;3.87;;;2.40;;
9138;SDS011;4604;48.616;9.548;2023-12-20T10:36:22;6.90;;;3.23;;
9138;SDS011;4604;48.616;9.548;2023-12-20T10:38:49;6.63;;;3.63;;
9138;SDS011;4604;48.616;9.548;2023-12-20T10:41:20;3.67;;;2.13;;
9138;SDS011;4604;48.616;9.548;2023-12-20T10:43:52;8.00;;;3.53;;
9138;SDS011;4604;48.616;9.548;2023-12-20T10:46:21;5.73;;;2.77;;
9138;SDS011;4604;48.616;9.548;2023-12-20T10:48:48;3.87;;;2.43;;
9138;SDS011;4604;48.616;9.548;2023-12-20T10:51:17;3.67;;;2.23;;
9138;SDS011;4604;48.616;9.548;2023-12-20T10:53:45;3.20;;;2.07;;
9138;SDS011;4604;48.616;9.548;2023-12-20T10:56:15;6.43;;;2.00;;
9138;SDS011;4604;48.616;9.548;2023-12-20T10:58:44;3.30;;;1.97;;
9138;SDS011;4604;48.616;9.548;2023-12-20T11:01:12;3.87;;;2.10;;
9138;SDS011;4604;48.616;9.548;2023-12-20T11:03:42;3.83;;;1.90;;
9138;SDS011;4604;48.616;9.548;2023-12-20T11:06:14;6.17;;;1.93;;
9138;SDS011;4604;48.616;9.548;2023-12-20T11:08:55;3.50;;;2.10;;
9138;SDS011;4604;48.616;9.548;2023-12-20T11:11:35;6.77;;;2.70;;
9138;SDS011;4604;48.616;9.548;2023-12-20T11:14:11;3.00;;;1.93;;
9138;SDS011;4604;48.616;9.548;2023-12-20T11:16:42;7.00;;;2.70;;
9138;SDS011;4604;48.616;9.548;2023-12-20T11:19:09;6.27;;;3.20;;
9138;SDS011;4604;48.616;9.548;2023-12-20T11:21:38;5.53;;;3.20;;
9138;SDS011;4604;48.616;9.548;2023-12-20T11:24:05;6.40;;;3.30;;
9138;SDS011;4604;48.616;9.548;2023-12-20T11:26:32;4.50;;;3.00;;
9138;SDS011;4604;48.616;9.548;2023-12-20T11:32:02;4.37;;;3.27;;
9138;SDS011;4604;48.616;9.548;2023-12-20T11:34:32;3.50;;;2.30;;
9138;SDS011;4604;48.616;9.548;2023-12-20T11:37:02;7.73;;;2.97;;
9138;SDS011;4604;48.616;9.548;2023-12-20T11:39:29;9.80;;;2.63;;
9138;SDS011;4604;48.616;9.548;2023-12-20T11:41:57;5.07;;;2.77;;
9138;SDS011;4604;48.616;9.548;2023-12-20T11:47:22;3.87;;;2.50;;
9138;SDS011;4604;48.616;9.548;2023-12-20T11:49:49;6.47;;;2.33;;
9138;SDS011;4604;48.616;9.548;2023-12-20T11:52:16;11.37;;;3.83;;
9138;SDS011;4604;48.616;9.548;2023-12-20T11:54:45;7.03;;;3.27;;
9138;SDS011;4604;48.616;9.548;2023-12-20T11:57:12;5.30;;;2.43;;
9138;SDS011;4604;48.616;9.548;2023-12-20T11:59:39;8.87;;;2.53;;
9138;SDS011;4604;48.616;9.548;2023-12-20T12:02:07;5.13;;;3.30;;
9138;SDS011;4604;48.616;9.548;2023-12-20T12:04:34;4.17;;;1.93;;
9138;SDS011;4604;48.616;9.548;2023-12-20T12:07:01;5.33;;;2.30;;
9138;SDS011;4604;48.616;9.548;2023-12-20T12:09:28;10.20;;;3.20;;
9138;SDS011;4604;48.616;9.548;2023-12-20T12:11:54;5.33;;;3.33;;
9138;SDS011;4604;48.616;9.548;2023-12-20T12:14:21;7.93;;;2.80;;
9138;SDS011;4604;48.616;9.548;2023-12-20T12:16:48;6.00;;;2.17;;
9138;SDS011;4604;48.616;9.548;2023-12-20T12:19:22;5.37;;;2.67;;
9138;SDS011;4604;48.616;9.548;2023-12-20T12:21:50;5.27;;;3.10;;
9138;SDS011;4604;48.616;9.548;2023-12-20T12:24:19;5.03;;;2.33;;
9138;SDS011;4604;48.616;9.548;2023-12-20T12:26:49;6.33;;;3.27;;
9138;SDS011;4604;48.616;9.548;2023-12-20T12:29:16;5.43;;;2.27;;
9138;SDS011;4604;48.616;9.548;2023-12-20T12:31:43;3.80;;;2.33;;
9138;SDS011;4604;48.616;9.548;2023-12-20T12:34:09;5.33;;;2.30;;
9138;SDS011;4604;48.616;9.548;2023-12-20T12:36:37;6.17;;;2.33;;
9138;SDS011;4604;48.616;9.548;2023-12-20T12:39:05;7.13;;;2.17;;
9138;SDS011;4604;48.616;9.548;2023-12-20T12:41:32;5.07;;;2.83;;
9138;SDS011;4604;48.616;9.548;2023-12-20T12:43:58;3.17;;;1.77;;
9138;SDS011;4604;48.616;9.548;2023-12-20T12:46:25;5.07;;;2.27;;
9138;SDS011;4604;48.616;9.548;2023-12-20T12:48:52;5.47;;;2.63;;
9138;SDS011;4604;48.616;9.548;2023-12-20T12:51:18;6.30;;;1.90;;
9138;SDS011;4604;48.616;9.548;2023-12-20T12:53:46;4.53;;;2.30;;
9138;SDS011;4604;48.616;9.548;2023-12-20T12:56:13;5.20;;;2.20;;
9138;SDS011;4604;48.616;9.548;2023-12-20T12:58:40;11.40;;;4.03;;
9138;SDS011;4604;48.616;9.548;2023-12-20T13:01:06;5.23;;;2.40;;
9138;SDS011;4604;48.616;9.548;2023-12-20T13:03:33;3.37;;;2.40;;
9138;SDS011;4604;48.616;9.548;2023-12-20T13:06:01;5.13;;;2.80;;
9138;SDS011;4604;48.616;9.548;2023-12-20T13:08:28;7.10;;;2.00;;
9138;SDS011;4604;48.616;9.548;2023-12-20T13:10:56;2.73;;;1.67;;
9138;SDS011;4604;48.616;9.548;2023-12-20T13:13:25;8.63;;;2.17;;
9138;SDS011;4604;48.616;9.548;2023-12-20T13:15:52;3.63;;;1.63;;
9138;SDS011;4604;48.616;9.548;2023-12-20T13:18:20;4.57;;;1.60;;
9138;SDS011;4604;48.616;9.548;2023-12-20T13:20:47;3.87;;;1.80;;
9138;SDS011;4604;48.616;9.548;2023-12-20T13:23:13;4.90;;;1.60;;
9138;SDS011;4604;48.616;9.548;2023-12-20T13:25:40;5.33;;;2.07;;
9138;SDS011;4604;48.616;9.548;2023-12-20T13:28:09;3.40;;;2.23;;
9138;SDS011;4604;48.616;9.548;2023-12-20T13:30:35;3.53;;;2.17;;
9138;SDS011;4604;48.616;9.548;2023-12-20T13:33:02;2.83;;;1.53;;
9138;SDS011;4604;48.616;9.548;2023-12-20T13:35:29;3.40;;;1.77;;
9138;SDS011;4604;48.616;9.548;2023-12-20T13:37:55;3.20;;;1.40;;
9138;SDS011;4604;48.616;9.548;2023-12-20T13:40:22;6.73;;;2.03;;
9138;SDS011;4604;48.616;9.548;2023-12-20T13:42:49;7.33;;;2.30;;
9138;SDS011;4604;48.616;9.548;2023-12-20T13:45:17;3.57;;;1.90;;
9138;SDS011;4604;48.616;9.548;2023-12-20T13:47:43;4.30;;;1.70;;
9138;SDS011;4604;48.616;9.548;2023-12-20T13:50:10;5.53;;;1.53;;
9138;SDS011;4604;48.616;9.548;2023-12-20T13:52:39;5.00;;;1.40;;
9138;SDS011;4604;48.616;9.548;2023-12-20T13:55:06;6.97;;;1.90;;
9138;SDS011;4604;48.616;9.548;2023-12-20T13:57:33;4.77;;;1.63;;
9138;SDS011;4604;48.616;9.548;2023-12-20T14:00:02;1.90;;;1.70;;
9138;SDS011;4604;48.616;9.548;2023-12-20T14:02:31;3.43;;;1.77;;
9138;SDS011;4604;48.616;9.548;2023-12-20T14:04:57;8.53;;;2.63;;
9138;SDS011;4604;48.616;9.548;2023-12-20T14:07:24;2.83;;;2.00;;
9138;SDS011;4604;48.616;9.548;2023-12-20T14:09:51;3.33;;;1.43;;
9138;SDS011;4604;48.616;9.548;2023-12-20T14:12:17;3.03;;;1.73;;
9138;SDS011;4604;48.616;9.548;2023-12-20T14:14:45;3.00;;;1.70;;
9138;SDS011;4604;48.616;9.548;2023-12-20T14:17:12;2.77;;;1.80;;
9138;SDS011;4604;48.616;9.548;2023-12-20T14:19:40;3.23;;;2.30;;
9138;SDS011;4604;48.616;9.548;2023-12-20T14:22:06;4.10;;;1.70;;
9138;SDS011;4604;48.616;9.548;2023-12-20T14:24:33;2.40;;;1.50;;
9138;SDS011;4604;48.616;9.548;2023-12-20T14:27:01;3.00;;;1.87;;
9138;SDS011;4604;48.616;9.548;2023-12-20T14:29:27;8.27;;;2.90;;
9138;SDS011;4604;48.616;9.548;2023-12-20T14:31:54;6.77;;;2.20;;
9138;SDS011;4604;48.616;9.548;2023-12-20T14:34:21;5.17;;;1.80;;
9138;SDS011;4604;48.616;9.548;2023-12-20T14:36:50;3.90;;;2.60;;
9138;SDS011;4604;48.616;9.548;2023-12-20T14:39:17;3.93;;;2.03;;
9138;SDS011;4604;48.616;9.548;2023-12-20T14:41:44;6.53;;;2.63;;
9138;SDS011;4604;48.616;9.548;2023-12-20T14:44:10;5.37;;;2.63;;
9138;SDS011;4604;48.616;9.548;2023-12-20T14:46:37;4.63;;;2.50;;
9138;SDS011;4604;48.616;9.548;2023-12-20T14:49:04;4.87;;;2.13;;
9138;SDS011;4604;48.616;9.548;2023-12-20T14:51:31;7.47;;;2.23;;
9138;SDS011;4604;48.616;9.548;2023-12-20T14:53:59;6.07;;;2.03;;
9138;SDS011;4604;48.616;9.548;2023-12-20T14:56:27;12.23;;;2.50;;
9138;SDS011;4604;48.616;9.548;2023-12-20T14:58:53;6.43;;;2.40;;
9138;SDS011;4604;48.616;9.548;2023-12-20T15:01:20;6.93;;;2.50;;
9138;SDS011;4604;48.616;9.548;2023-12-20T15:03:47;8.70;;;3.00;;
9138;SDS011;4604;48.616;9.548;2023-12-20T15:06:13;6.93;;;2.30;;
9138;SDS011;4604;48.616;9.548;2023-12-20T15:08:40;9.17;;;2.03;;
9138;SDS011;4604;48.616;9.548;2023-12-20T15:11:08;5.63;;;1.93;;
9138;SDS011;4604;48.616;9.548;2023-12-20T15:13:35;1.80;;;1.37;;
9138;SDS011;4604;48.616;9.548;2023-12-20T15:16:01;3.40;;;1.93;;
9138;SDS011;4604;48.616;9.548;2023-12-20T15:18:28;4.03;;;1.77;;
9138;SDS011;4604;48.616;9.548;2023-12-20T15:20:57;5.47;;;2.10;;